Aviation Digital Data Service (ADDS)

Output produced by METARs form (1536 UTC 18 January 2018)
found at http://aviationweather.gov/adds/metars/
 
KLCH 181453Z 05013KT 10SM CLR M03/M08 A3058 RMK AO2 SLP364 T10281083 53000